Time;durP1;ratioP1;P1;durP2;ratioP2;P2;SDS_P1;SDS_P2;PMS_P1;PMS_P2;Temp;Humidity;BMP_temperature;BMP_pressure;BME280_temperature;BME280_humidity;BME280_pressure;Samples;Min_cycle;Max_cycle;Signal;HPM_P1;HPM_P2
2022/07/27 00:01:06;;;;;;;2.85;1.25;;;16.10;99.90;;;;;;5070458;28;20054;-65
2022/07/27 00:03:32;;;;;;;4.50;1.42;;;16.20;99.90;;;;;;5069964;28;20056;-66
2022/07/27 00:05:58;;;;;;;4.32;1.45;;;16.10;99.90;;;;;;5069858;28;20040;-64
2022/07/27 00:08:23;;;;;;;4.40;1.45;;;16.10;99.90;;;;;;5070906;28;20057;-64
2022/07/27 00:10:51;;;;;;;5.57;1.42;;;16.10;99.90;;;;;;5069778;28;20083;-66
2022/07/27 00:13:16;;;;;;;3.40;1.33;;;16.10;99.90;;;;;;5070958;28;20515;-65
2022/07/27 00:15:43;;;;;;;2.63;1.20;;;16.10;99.90;;;;;;5052600;28;20041;-65
2022/07/27 00:18:09;;;;;;;2.95;1.13;;;16.10;99.90;;;;;;5053536;28;20083;-65
2022/07/27 00:20:35;;;;;;;3.33;1.35;;;16.10;99.90;;;;;;5069750;28;20105;-67
2022/07/27 00:23:00;;;;;;;4.13;1.55;;;16.00;99.90;;;;;;5071443;28;20110;-65
2022/07/27 00:25:26;;;;;;;5.30;1.60;;;16.10;99.90;;;;;;5070929;28;20394;-67
2022/07/27 00:27:53;;;;;;;5.30;1.42;;;16.00;99.90;;;;;;5071019;28;20045;-66
2022/07/27 00:30:19;;;;;;;6.40;1.52;;;16.00;99.90;;;;;;5070275;28;20058;-65
2022/07/27 00:32:45;;;;;;;4.05;1.27;;;16.00;99.90;;;;;;5070889;28;20052;-64
2022/07/27 00:35:11;;;;;;;6.63;1.50;;;15.90;99.90;;;;;;5070192;28;20051;-65
2022/07/27 00:37:38;;;;;;;6.35;1.70;;;15.90;99.90;;;;;;5070492;28;20398;-65
2022/07/27 00:40:06;;;;;;;2.92;1.15;;;15.90;99.90;;;;;;5071057;28;20056;-65
2022/07/27 00:42:32;;;;;;;6.28;1.67;;;15.90;99.90;;;;;;5069524;28;20410;-64
2022/07/27 00:44:58;;;;;;;5.30;1.50;;;15.90;99.90;;;;;;5071115;28;20040;-65
2022/07/27 00:47:24;;;;;;;3.15;1.30;;;15.90;99.90;;;;;;5070900;28;20478;-67
2022/07/27 00:49:50;;;;;;;6.75;2.17;;;15.80;99.90;;;;;;5069868;28;20145;-65
2022/07/27 00:52:16;;;;;;;6.00;1.40;;;15.80;99.90;;;;;;5053185;28;20103;-66
2022/07/27 00:54:43;;;;;;;7.00;1.63;;;15.70;99.90;;;;;;5069395;28;20051;-65
2022/07/27 00:57:10;;;;;;;5.55;1.70;;;15.60;99.90;;;;;;5070814;28;20067;-66
2022/07/27 00:59:36;;;;;;;7.40;1.42;;;15.60;99.90;;;;;;5069295;28;20048;-66
2022/07/27 01:02:03;;;;;;;6.00;1.70;;;15.50;99.90;;;;;;5053183;28;20127;-65
2022/07/27 01:04:29;;;;;;;3.28;1.38;;;15.50;99.90;;;;;;5071060;28;20045;-66
2022/07/27 01:06:55;;;;;;;7.32;2.03;;;15.40;99.90;;;;;;5070434;28;20223;-65
2022/07/27 01:12:09;;;;;;;10.45;1.73;;;15.40;99.90;;;;;;5059778;28;20482;-64
2022/07/27 01:14:37;;;;;;;6.68;1.77;;;15.30;99.90;;;;;;5090248;28;20444;-65
2022/07/27 01:17:03;;;;;;;9.18;2.17;;;15.30;99.90;;;;;;5074650;28;20051;-65
2022/07/27 01:19:29;;;;;;;5.97;1.73;;;15.30;99.90;;;;;;5074855;28;20450;-67
2022/07/27 01:21:54;;;;;;;5.43;1.50;;;15.30;99.90;;;;;;5073316;28;20044;-65
2022/07/27 01:24:20;;;;;;;9.93;2.13;;;15.30;99.90;;;;;;5073318;28;20044;-66
2022/07/27 01:26:46;;;;;;;9.00;1.83;;;15.20;99.90;;;;;;5073713;28;20394;-66
2022/07/27 01:29:12;;;;;;;6.10;1.65;;;15.20;99.90;;;;;;5040252;28;20052;-66
2022/07/27 01:31:38;;;;;;;8.35;2.42;;;15.20;99.90;;;;;;5073799;28;20063;-66
2022/07/27 01:34:05;;;;;;;7.18;2.03;;;15.20;99.90;;;;;;5056172;28;20055;-65
2022/07/27 01:36:31;;;;;;;5.93;1.63;;;15.10;99.90;;;;;;5073762;28;20457;-68
2022/07/27 01:38:57;;;;;;;7.47;2.25;;;15.10;99.90;;;;;;5072751;28;20076;-65
2022/07/27 01:41:22;;;;;;;7.72;1.92;;;15.10;99.90;;;;;;5056271;28;20494;-65
2022/07/27 01:43:48;;;;;;;4.22;1.52;;;15.10;99.90;;;;;;5073732;28;20055;-66
2022/07/27 01:46:14;;;;;;;5.50;1.88;;;15.10;99.90;;;;;;5072876;28;20052;-66
2022/07/27 01:48:40;;;;;;;8.40;1.67;;;15.10;99.90;;;;;;5055594;28;20055;-65
2022/07/27 01:51:06;;;;;;;10.77;2.10;;;15.00;99.90;;;;;;5072860;28;20052;-65
2022/07/27 01:53:31;;;;;;;6.35;2.20;;;15.00;99.90;;;;;;5056060;28;20048;-66
2022/07/27 01:55:57;;;;;;;7.65;1.88;;;15.00;99.90;;;;;;5073511;28;20127;-65
2022/07/27 01:58:23;;;;;;;3.90;1.60;;;14.90;99.90;;;;;;5055740;28;20048;-65
2022/07/27 02:00:49;;;;;;;5.60;1.92;;;14.90;99.90;;;;;;5073419;28;20084;-65
2022/07/27 02:03:15;;;;;;;9.23;1.80;;;14.90;99.90;;;;;;5073746;28;20052;-66
2022/07/27 02:05:41;;;;;;;4.70;1.80;;;14.90;99.90;;;;;;5073481;28;20045;-64
2022/07/27 02:08:07;;;;;;;7.05;2.10;;;15.00;99.90;;;;;;5072022;28;20053;-66
2022/07/27 02:10:35;;;;;;;5.90;1.85;;;15.00;99.90;;;;;;5073369;28;20063;-65
2022/07/27 02:13:00;;;;;;;6.82;2.00;;;15.00;99.90;;;;;;5055462;28;20430;-65
2022/07/27 02:15:28;;;;;;;8.10;1.95;;;15.00;99.90;;;;;;5072956;28;20040;-65
2022/07/27 02:17:54;;;;;;;7.28;1.88;;;15.00;99.90;;;;;;5088336;28;20512;-66
2022/07/27 02:20:23;;;;;;;6.25;1.70;;;15.00;99.90;;;;;;5072962;28;20554;-65
2022/07/27 02:22:50;;;;;;;5.03;1.73;;;15.00;99.90;;;;;;5072051;28;20178;-66
2022/07/27 02:25:17;;;;;;;6.07;1.80;;;15.00;99.90;;;;;;5071622;28;20047;-66
2022/07/27 02:27:44;;;;;;;8.88;1.67;;;15.00;99.90;;;;;;5072736;28;20079;-65
2022/07/27 02:30:11;;;;;;;7.25;2.00;;;15.00;99.90;;;;;;5071708;28;20084;-66
2022/07/27 02:32:39;;;;;;;11.30;1.98;;;15.00;99.90;;;;;;5072386;28;20433;-65
2022/07/27 02:35:05;;;;;;;8.75;2.22;;;14.90;99.90;;;;;;5072616;28;20051;-65
2022/07/27 02:37:31;;;;;;;6.45;1.65;;;15.00;99.90;;;;;;5072599;28;20104;-66
2022/07/27 02:39:57;;;;;;;6.95;2.38;;;14.90;99.90;;;;;;5071981;28;20508;-66
2022/07/27 02:42:23;;;;;;;6.45;1.80;;;14.90;99.90;;;;;;5071295;28;20052;-66
2022/07/27 02:44:48;;;;;;;8.80;1.70;;;14.90;99.90;;;;;;5071949;28;20040;-66
2022/07/27 02:47:14;;;;;;;6.53;2.08;;;14.90;99.90;;;;;;5071871;28;20048;-66
2022/07/27 02:49:40;;;;;;;9.25;1.83;;;14.90;99.90;;;;;;5072517;28;20044;-66
2022/07/27 02:52:06;;;;;;;4.70;1.65;;;14.90;99.90;;;;;;5071471;28;20102;-66
2022/07/27 02:54:32;;;;;;;9.02;2.42;;;14.80;99.90;;;;;;5072594;28;20044;-65
2022/07/27 02:57:01;;;;;;;8.40;1.65;;;14.90;99.90;;;;;;5071834;28;20047;-67
2022/07/27 02:59:27;;;;;;;6.10;2.10;;;14.90;99.90;;;;;;5054925;28;20052;-66
2022/07/27 03:01:53;;;;;;;7.25;1.73;;;14.90;99.90;;;;;;5072112;28;20527;-66
2022/07/27 03:04:19;;;;;;;6.90;2.05;;;14.80;99.90;;;;;;5072246;28;20231;-66
2022/07/27 03:06:45;;;;;;;7.40;2.17;;;14.90;99.90;;;;;;5070911;28;20033;-67
2022/07/27 03:09:11;;;;;;;6.20;1.90;;;14.80;99.90;;;;;;5072031;28;20060;-65
2022/07/27 03:11:37;;;;;;;5.38;1.80;;;14.80;99.90;;;;;;5071860;28;20060;-66
2022/07/27 03:14:03;;;;;;;6.95;1.60;;;14.80;99.90;;;;;;5070936;28;20135;-65
2022/07/27 03:16:29;;;;;;;8.68;1.88;;;14.80;99.90;;;;;;5071921;28;20458;-66
2022/07/27 03:18:56;;;;;;;7.57;2.13;;;14.80;99.90;;;;;;5070155;28;20451;-65
2022/07/27 03:21:22;;;;;;;6.80;2.20;;;14.80;99.90;;;;;;5070781;28;20064;-66
2022/07/27 03:23:48;;;;;;;8.52;2.08;;;14.80;99.90;;;;;;5070422;28;20044;-68
2022/07/27 03:26:15;;;;;;;6.15;2.20;;;14.80;99.90;;;;;;5071618;28;20162;-66
2022/07/27 03:28:40;;;;;;;7.40;1.95;;;14.80;99.90;;;;;;5071581;28;20493;-66
2022/07/27 03:31:06;;;;;;;5.07;1.73;;;14.90;99.90;;;;;;5069790;28;20044;-66
2022/07/27 03:33:33;;;;;;;5.97;1.70;;;14.80;99.90;;;;;;5070806;28;20063;-65
2022/07/27 03:35:59;;;;;;;6.82;1.90;;;14.90;99.90;;;;;;5069848;28;20036;-66
2022/07/27 03:38:25;;;;;;;5.85;1.83;;;14.90;99.90;;;;;;5070683;28;20051;-65
2022/07/27 03:40:50;;;;;;;6.68;1.77;;;14.90;99.90;;;;;;5070207;28;20036;-67
2022/07/27 03:43:16;;;;;;;9.98;2.08;;;14.80;99.90;;;;;;5070291;28;20078;-66
2022/07/27 03:45:43;;;;;;;6.03;1.88;;;14.90;99.90;;;;;;5070352;28;20132;-65
2022/07/27 03:48:09;;;;;;;8.30;1.80;;;14.80;99.90;;;;;;5071042;28;20401;-65
2022/07/27 03:50:35;;;;;;;8.82;2.20;;;14.80;99.90;;;;;;5071418;28;20044;-66
2022/07/27 03:53:00;;;;;;;6.00;1.92;;;14.80;99.90;;;;;;5069771;28;20095;-65
2022/07/27 03:55:26;;;;;;;9.75;1.98;;;14.80;99.90;;;;;;5071229;28;20455;-66
2022/07/27 03:57:52;;;;;;;7.57;1.92;;;14.80;99.90;;;;;;5071290;28;20123;-67
2022/07/27 04:00:18;;;;;;;10.57;2.40;;;14.80;99.90;;;;;;5069949;28;20056;-66
2022/07/27 04:02:44;;;;;;;12.88;2.20;;;14.80;99.90;;;;;;5070909;28;20045;-66
2022/07/27 04:05:11;;;;;;;5.57;2.00;;;14.80;99.90;;;;;;5070038;28;20132;-66
2022/07/27 04:07:37;;;;;;;14.10;2.67;;;14.80;99.90;;;;;;5053606;28;20055;-65
2022/07/27 04:10:04;;;;;;;8.52;1.95;;;14.80;99.90;;;;;;5070959;28;20524;-66
2022/07/27 04:12:30;;;;;;;10.00;2.42;;;14.80;99.90;;;;;;5071611;28;20040;-66
2022/07/27 04:14:55;;;;;;;8.63;2.17;;;14.80;99.90;;;;;;5069746;28;20048;-68
2022/07/27 04:17:21;;;;;;;10.25;2.50;;;14.80;99.90;;;;;;5070104;28;20041;-66
2022/07/27 04:19:47;;;;;;;11.43;2.60;;;14.80;99.90;;;;;;5053669;28;20485;-66
2022/07/27 04:22:12;;;;;;;4.65;2.10;;;14.80;99.90;;;;;;5070948;28;20135;-65
2022/07/27 04:24:38;;;;;;;7.75;2.05;;;14.80;99.90;;;;;;5070029;28;20151;-66
2022/07/27 04:27:04;;;;;;;7.57;1.95;;;14.70;99.90;;;;;;5086654;28;20044;-66
2022/07/27 04:29:30;;;;;;;6.82;2.13;;;14.80;99.90;;;;;;5070338;28;20044;-65
2022/07/27 04:31:55;;;;;;;5.45;1.88;;;14.80;99.90;;;;;;5069899;28;20052;-66
2022/07/27 04:34:21;;;;;;;4.75;1.98;;;14.80;99.90;;;;;;5069641;28;20049;-65
2022/07/27 04:36:48;;;;;;;7.10;2.00;;;14.80;99.90;;;;;;5071146;28;20041;-69
2022/07/27 04:39:15;;;;;;;6.60;2.28;;;14.80;99.90;;;;;;5069745;28;20114;-65
2022/07/27 04:41:41;;;;;;;7.63;2.20;;;14.80;99.90;;;;;;5053073;28;20486;-65
2022/07/27 04:44:07;;;;;;;10.05;2.10;;;14.80;99.90;;;;;;5073791;28;20132;-66
2022/07/27 04:46:32;;;;;;;6.40;1.92;;;14.90;99.90;;;;;;5073621;28;20068;-65
2022/07/27 04:48:58;;;;;;;9.77;2.20;;;14.90;99.90;;;;;;5073729;28;20040;-66
2022/07/27 04:51:24;;;;;;;7.13;2.10;;;14.90;99.90;;;;;;5074330;28;20045;-66
2022/07/27 04:53:49;;;;;;;8.15;2.20;;;14.90;99.90;;;;;;5074873;28;20478;-65
2022/07/27 04:56:15;;;;;;;10.05;2.10;;;15.00;99.90;;;;;;5073026;28;20061;-67
2022/07/27 04:58:41;;;;;;;7.00;2.17;;;14.90;99.90;;;;;;5074663;28;20048;-65
2022/07/27 05:01:09;;;;;;;7.20;2.67;;;15.00;99.90;;;;;;5074333;28;20049;-65
2022/07/27 05:03:35;;;;;;;6.93;2.10;;;15.00;99.90;;;;;;5074817;28;20503;-66
2022/07/27 05:06:00;;;;;;;8.85;2.20;;;15.00;99.90;;;;;;5074707;28;20124;-66
2022/07/27 05:08:26;;;;;;;9.07;2.35;;;15.00;99.90;;;;;;5073848;28;20053;-66
2022/07/27 05:10:52;;;;;;;8.68;2.33;;;15.10;99.90;;;;;;5073355;28;20048;-66
2022/07/27 05:13:17;;;;;;;8.68;2.53;;;15.20;99.90;;;;;;5073871;28;20043;-66
2022/07/27 05:15:43;;;;;;;8.20;2.30;;;15.30;99.90;;;;;;5074316;28;20497;-66
2022/07/27 05:18:09;;;;;;;7.35;2.78;;;15.50;99.90;;;;;;5072891;28;20394;-66
2022/07/27 05:20:35;;;;;;;7.40;2.55;;;15.40;99.90;;;;;;5074294;28;20492;-66
2022/07/27 05:23:00;;;;;;;6.07;2.20;;;15.50;99.90;;;;;;5073187;28;20049;-66
2022/07/27 05:25:26;;;;;;;10.40;2.40;;;15.40;99.90;;;;;;5056241;28;20378;-66
2022/07/27 05:27:52;;;;;;;6.97;2.35;;;15.40;99.90;;;;;;5056313;28;20055;-65
2022/07/27 05:30:19;;;;;;;10.07;2.30;;;15.30;99.90;;;;;;5072494;28;20469;-66
2022/07/27 05:32:45;;;;;;;10.45;2.60;;;15.20;99.90;;;;;;5074227;28;20101;-67
2022/07/27 05:35:12;;;;;;;6.70;2.33;;;15.20;99.90;;;;;;5055820;28;20053;-66
2022/07/27 05:37:38;;;;;;;6.65;2.50;;;15.10;99.90;;;;;;5073944;28;20036;-66
2022/07/27 05:40:05;;;;;;;9.38;2.15;;;15.10;99.90;;;;;;5074039;28;20064;-67
2022/07/27 05:42:31;;;;;;;7.18;2.10;;;15.20;99.90;;;;;;5072321;28;20128;-66
2022/07/27 05:44:57;;;;;;;7.82;2.50;;;15.20;99.90;;;;;;5074145;28;20127;-66
2022/07/27 05:47:23;;;;;;;6.35;2.33;;;15.20;99.90;;;;;;5073570;28;20045;-65
2022/07/27 05:49:48;;;;;;;8.40;2.75;;;15.20;99.90;;;;;;5056019;28;20040;-65
2022/07/27 05:52:15;;;;;;;8.55;2.35;;;15.20;99.90;;;;;;5073428;28;20371;-65
2022/07/27 05:54:42;;;;;;;10.73;2.42;;;15.20;99.90;;;;;;5072430;28;20048;-66
2022/07/27 05:57:08;;;;;;;6.43;2.13;;;15.30;99.90;;;;;;5072448;28;20067;-66
2022/07/27 05:59:35;;;;;;;7.80;2.42;;;15.30;99.90;;;;;;5072822;28;20060;-65
2022/07/27 06:02:02;;;;;;;6.88;2.15;;;15.30;99.90;;;;;;5073650;28;20048;-66
2022/07/27 06:04:28;;;;;;;6.97;2.30;;;15.40;99.90;;;;;;5073414;28;20142;-65
2022/07/27 06:09:38;;;;;;;8.45;2.30;;;15.50;99.90;;;;;;5073573;28;20147;-66
2022/07/27 06:12:04;;;;;;;7.05;2.08;;;15.60;99.90;;;;;;5072027;28;20072;-65
2022/07/27 06:14:30;;;;;;;6.85;2.15;;;15.70;99.90;;;;;;5088685;28;20056;-65
2022/07/27 06:16:55;;;;;;;6.13;2.17;;;16.20;99.90;;;;;;5073691;28;20036;-65
2022/07/27 06:19:21;;;;;;;7.32;2.17;;;17.00;99.90;;;;;;5071858;28;20044;-65
2022/07/27 06:21:47;;;;;;;5.97;1.92;;;18.10;99.90;;;;;;5055357;28;20401;-65
2022/07/27 06:24:13;;;;;;;7.40;2.00;;;19.50;99.90;;;;;;5072812;28;20044;-68
2022/07/27 06:26:39;;;;;;;7.85;1.92;;;20.80;99.90;;;;;;5073053;28;20048;-65
2022/07/27 06:29:05;;;;;;;6.22;2.10;;;21.80;99.90;;;;;;5071907;28;20051;-65
2022/07/27 06:31:30;;;;;;;7.30;2.13;;;22.70;99.90;;;;;;5071467;28;20084;-64
2022/07/27 06:33:56;;;;;;;6.45;2.00;;;23.60;98.80;;;;;;5038644;28;20059;-65
2022/07/27 06:36:23;;;;;;;7.10;2.25;;;24.20;97.20;;;;;;5072076;28;20055;-65
2022/07/27 06:38:49;;;;;;;6.63;1.70;;;24.70;95.30;;;;;;5071308;28;20455;-65
2022/07/27 06:41:15;;;;;;;7.57;1.80;;;24.80;94.30;;;;;;5071282;28;20044;-65
2022/07/27 06:43:41;;;;;;;6.47;2.10;;;24.70;94.50;;;;;;5072074;28;20042;-66
2022/07/27 06:46:11;;;;;;;6.00;2.13;;;25.10;94.70;;;;;;5072783;28;20052;-65
2022/07/27 06:48:37;;;;;;;5.82;1.63;;;25.80;93.70;;;;;;5070920;28;20615;-64
2022/07/27 06:51:04;;;;;;;9.15;1.90;;;26.30;92.50;;;;;;5072558;28;20059;-65
2022/07/27 06:53:29;;;;;;;4.85;1.35;;;26.60;91.10;;;;;;5072073;28;20048;-65
2022/07/27 06:55:57;;;;;;;5.72;1.63;;;27.20;92.50;;;;;;5054815;28;20560;-67
2022/07/27 06:58:22;;;;;;;5.78;1.60;;;27.10;88.90;;;;;;5070838;28;20125;-66
2022/07/27 07:00:48;;;;;;;3.45;1.30;;;27.20;88.70;;;;;;5072369;28;20083;-66
2022/07/27 07:03:14;;;;;;;3.88;1.38;;;27.40;88.60;;;;;;5072470;28;20060;-66
2022/07/27 07:05:43;;;;;;;4.63;1.50;;;27.60;87.40;;;;;;5071224;28;20048;-66
2022/07/27 07:08:10;;;;;;;5.22;1.60;;;27.40;85.90;;;;;;5072165;28;20056;-67
2022/07/27 07:10:37;;;;;;;5.93;1.90;;;27.60;84.70;;;;;;5054017;28;20059;-66
2022/07/27 07:13:05;;;;;;;4.38;1.30;;;27.80;84.00;;;;;;5070847;28;20055;-68
2022/07/27 07:15:31;;;;;;;4.50;1.48;;;28.20;83.40;;;;;;5070532;28;20045;-65
2022/07/27 07:17:56;;;;;;;4.43;1.38;;;28.20;82.30;;;;;;5071222;28;20050;-66
2022/07/27 07:20:22;;;;;;;3.35;1.35;;;27.50;82.50;;;;;;5071905;28;20494;-67
2022/07/27 07:22:48;;;;;;;3.88;1.42;;;26.10;84.30;;;;;;5072187;28;20051;-65
2022/07/27 07:25:14;;;;;;;4.90;1.52;;;24.90;86.80;;;;;;5070812;28;20044;-63
2022/07/27 07:27:39;;;;;;;7.65;1.90;;;23.40;90.20;;;;;;5070360;28;20115;-66
2022/07/27 07:30:06;;;;;;;5.13;1.70;;;22.60;92.00;;;;;;5071039;28;20055;-65
2022/07/27 07:32:32;;;;;;;4.43;1.63;;;21.80;92.60;;;;;;5071764;28;20397;-65
2022/07/27 07:34:58;;;;;;;4.57;1.70;;;21.20;93.60;;;;;;5071998;28;20048;-63
2022/07/27 07:37:23;;;;;;;7.40;1.55;;;20.60;94.40;;;;;;5070645;28;20040;-67
2022/07/27 07:39:49;;;;;;;5.72;1.80;;;20.00;95.50;;;;;;5071687;28;20040;-64
2022/07/27 07:42:15;;;;;;;6.35;1.58;;;19.60;96.20;;;;;;5072234;28;20048;-64
2022/07/27 07:44:41;;;;;;;7.40;1.70;;;19.40;97.00;;;;;;5070411;28;20135;-64
2022/07/27 07:47:08;;;;;;;4.50;1.63;;;19.30;97.00;;;;;;5071980;28;20040;-65
2022/07/27 07:49:34;;;;;;;6.55;1.60;;;19.40;97.40;;;;;;5071348;28;20048;-65
2022/07/27 07:52:00;;;;;;;6.53;1.77;;;19.50;97.30;;;;;;5053581;28;20131;-65
2022/07/27 07:54:26;;;;;;;7.03;2.03;;;19.40;97.20;;;;;;5053609;28;20052;-67
2022/07/27 07:56:52;;;;;;;4.75;1.52;;;19.30;97.60;;;;;;5070428;28;20499;-64
2022/07/27 07:59:18;;;;;;;7.43;1.80;;;19.30;97.70;;;;;;5071619;28;20083;-64
2022/07/27 08:01:44;;;;;;;8.10;2.30;;;19.10;99.00;;;;;;5071119;28;20106;-64
2022/07/27 08:04:09;;;;;;;7.30;1.88;;;19.10;99.80;;;;;;5070353;28;20445;-66
2022/07/27 08:06:37;;;;;;;9.05;2.03;;;19.00;99.90;;;;;;5071210;28;20041;-65
2022/07/27 08:09:03;;;;;;;8.43;2.00;;;19.10;99.90;;;;;;5070409;28;20414;-66
2022/07/27 08:11:29;;;;;;;5.75;1.98;;;19.10;99.80;;;;;;5053778;28;20045;-68
2022/07/27 08:13:55;;;;;;;6.43;1.90;;;19.30;99.60;;;;;;5071838;28;20080;-64
2022/07/27 08:16:20;;;;;;;8.10;1.70;;;19.20;99.80;;;;;;5072060;28;20040;-64
2022/07/27 08:18:46;;;;;;;8.20;1.75;;;19.30;99.50;;;;;;5073200;28;20045;-65
2022/07/27 08:21:12;;;;;;;4.13;1.55;;;19.30;99.80;;;;;;5053189;28;20148;-67
2022/07/27 08:23:38;;;;;;;6.45;1.50;;;19.30;99.60;;;;;;5072456;28;20474;-65
2022/07/27 08:26:04;;;;;;;9.05;1.88;;;19.30;99.60;;;;;;5056113;28;20458;-68
2022/07/27 08:28:29;;;;;;;4.70;1.48;;;19.40;99.60;;;;;;5071980;28;20066;-66
2022/07/27 08:30:55;;;;;;;7.18;1.58;;;19.40;99.30;;;;;;5071219;28;20080;-66
2022/07/27 08:33:21;;;;;;;5.97;1.73;;;19.30;99.40;;;;;;5072829;28;20045;-66
2022/07/27 08:35:47;;;;;;;6.10;1.65;;;19.40;98.60;;;;;;5055459;28;20458;-65
2022/07/27 08:38:12;;;;;;;8.27;1.55;;;19.30;98.10;;;;;;5071362;28;20047;-65
2022/07/27 08:40:39;;;;;;;10.57;2.08;;;19.30;97.80;;;;;;5072003;28;20041;-65
2022/07/27 08:43:06;;;;;;;5.63;1.98;;;19.30;97.70;;;;;;5073606;28;20040;-64
2022/07/27 08:45:33;;;;;;;8.32;1.80;;;19.30;97.70;;;;;;5072453;28;20052;-66
2022/07/27 08:48:00;;;;;;;7.47;1.65;;;19.30;98.00;;;;;;5071590;28;20049;-65
2022/07/27 08:50:28;;;;;;;5.15;1.20;;;19.30;97.80;;;;;;5072913;28;20041;-65
2022/07/27 08:53:04;;;;;;;6.28;1.58;;;19.30;97.40;;;;;;5070567;28;20115;-65
2022/07/27 08:55:35;;;;;;;3.88;1.60;;;19.60;97.50;;;;;;5073337;28;20501;-66
2022/07/27 08:58:01;;;;;;;4.40;1.33;;;19.80;95.90;;;;;;5056869;28;20397;-66
2022/07/27 09:00:28;;;;;;;7.22;1.40;;;20.10;95.00;;;;;;5074867;28;20055;-66
2022/07/27 09:02:54;;;;;;;4.78;1.40;;;20.20;94.40;;;;;;5071167;28;20041;-65
2022/07/27 09:05:20;;;;;;;5.47;1.50;;;20.50;93.80;;;;;;5074475;28;20075;-65
2022/07/27 09:07:47;;;;;;;5.57;1.40;;;20.70;93.10;;;;;;5072666;28;20068;-65
2022/07/27 09:10:30;;;;;;;3.53;1.35;;;21.00;93.20;;;;;;5072227;28;20087;-65
2022/07/27 09:12:57;;;;;;;6.22;1.65;;;21.20;92.90;;;;;;5052348;28;20049;-65
2022/07/27 09:15:22;;;;;;;5.07;1.20;;;21.50;92.30;;;;;;5070229;28;20418;-65
2022/07/27 09:17:48;;;;;;;3.58;1.25;;;21.70;91.90;;;;;;5054512;28;20040;-65
2022/07/27 09:20:16;;;;;;;4.13;1.23;;;21.90;91.40;;;;;;5072698;28;20052;-65
2022/07/27 09:22:54;;;;;;;4.70;1.38;;;22.30;90.50;;;;;;5071212;28;20056;-65
2022/07/27 09:25:25;;;;;;;5.03;1.30;;;22.50;90.10;;;;;;5072105;28;20137;-65
2022/07/27 09:27:56;;;;;;;4.63;1.23;;;22.60;90.80;;;;;;5070574;28;20044;-64
2022/07/27 09:30:22;;;;;;;2.45;1.00;;;22.80;90.40;;;;;;5072448;28;20244;-65
2022/07/27 09:32:53;;;;;;;4.57;1.20;;;23.00;89.40;;;;;;5071792;28;20295;-65
2022/07/27 09:35:32;;;;;;;3.20;1.27;;;22.80;90.00;;;;;;5071414;28;20048;-65
2022/07/27 09:38:33;;;;;;;3.67;1.40;;;22.30;89.80;;;;;;5069533;28;20041;-64
2022/07/27 09:41:00;;;;;;;4.57;1.50;;;22.00;90.20;;;;;;5050892;28;20049;-64
2022/07/27 09:43:27;;;;;;;2.55;1.00;;;22.20;90.40;;;;;;5068904;28;20145;-64
2022/07/27 09:45:54;;;;;;;2.15;1.20;;;22.30;89.50;;;;;;5072300;28;20164;-64
2022/07/27 09:48:22;;;;;;;6.43;1.60;;;22.20;89.20;;;;;;5072733;28;20056;-65
2022/07/27 09:50:57;;;;;;;5.70;1.23;;;22.30;89.00;;;;;;5072975;28;20053;-64
2022/07/27 09:53:25;;;;;;;3.17;1.30;;;22.50;90.00;;;;;;5072784;28;20524;-63
2022/07/27 09:56:12;;;;;;;2.83;1.35;;;22.70;89.20;;;;;;5071337;28;20102;-64
2022/07/27 09:58:38;;;;;;;4.07;1.10;;;22.70;88.90;;;;;;5073042;28;20080;-65
2022/07/27 10:01:04;;;;;;;3.13;1.10;;;22.70;89.50;;;;;;5072520;28;20575;-62
2022/07/27 10:03:30;;;;;;;4.10;1.10;;;22.50;89.20;;;;;;5073147;28;20131;-64
2022/07/27 10:05:57;;;;;;;3.13;1.27;;;22.50;89.70;;;;;;5072910;28;20052;-63
2022/07/27 10:08:23;;;;;;;3.17;1.10;;;22.30;89.30;;;;;;5073160;28;20060;-64
2022/07/27 10:10:50;;;;;;;2.90;1.38;;;22.30;90.30;;;;;;5072727;28;20075;-63
2022/07/27 10:13:16;;;;;;;3.50;1.13;;;22.20;89.70;;;;;;5055314;28;20094;-64
2022/07/27 10:15:42;;;;;;;5.32;1.50;;;22.00;90.40;;;;;;5072256;28;20044;-64
2022/07/27 10:18:14;;;;;;;2.55;1.15;;;21.90;88.80;;;;;;5072897;28;20148;-64
2022/07/27 10:20:44;;;;;;;2.92;1.02;;;21.70;89.90;;;;;;5073400;28;20052;-65
2022/07/27 10:23:25;;;;;;;4.32;1.30;;;21.80;90.10;;;;;;5072163;28;20048;-64
2022/07/27 10:26:13;;;;;;;4.40;1.27;;;22.00;90.30;;;;;;5073214;28;20389;-64
2022/07/27 10:29:02;;;;;;;5.30;1.58;;;22.00;90.10;;;;;;5055586;28;20051;-64
2022/07/27 10:31:37;;;;;;;5.03;1.20;;;21.90;89.30;;;;;;5072031;28;20049;-64
2022/07/27 10:34:08;;;;;;;3.35;1.10;;;21.50;89.80;;;;;;5070507;28;20056;-65
2022/07/27 10:36:33;;;;;;;3.85;1.38;;;21.50;90.30;;;;;;5070498;28;20040;-67
2022/07/27 10:39:05;;;;;;;3.75;1.20;;;21.70;90.50;;;;;;5071895;28;20052;-65
2022/07/27 10:41:39;;;;;;;4.18;1.20;;;22.00;90.40;;;;;;5072745;28;20088;-64
2022/07/27 10:44:16;;;;;;;3.85;1.27;;;22.30;90.30;;;;;;5071870;28;20393;-65
2022/07/27 10:46:52;;;;;;;3.58;1.10;;;22.40;89.60;;;;;;5071618;28;20102;-65
2022/07/27 10:49:28;;;;;;;2.80;1.10;;;22.50;90.10;;;;;;5070961;28;20442;-64
2022/07/27 10:51:55;;;;;;;4.05;0.98;;;22.40;89.20;;;;;;5071599;28;20056;-65
2022/07/27 10:54:26;;;;;;;6.53;1.02;;;22.50;88.50;;;;;;5071609;28;20041;-69
2022/07/27 10:56:57;;;;;;;1.88;1.02;;;22.40;87.50;;;;;;5069841;28;20159;-67
2022/07/27 10:59:43;;;;;;;2.08;0.80;;;22.40;87.60;;;;;;5072506;28;20125;-64
2022/07/27 11:02:16;;;;;;;3.30;0.95;;;22.40;86.10;;;;;;5070953;28;20063;-63
2022/07/27 11:04:50;;;;;;;3.45;0.98;;;22.30;86.90;;;;;;5071368;28;20049;-65
2022/07/27 11:07:21;;;;;;;3.15;0.82;;;22.20;86.60;;;;;;5087723;28;20052;-64
2022/07/27 11:09:51;;;;;;;2.75;1.02;;;21.80;87.70;;;;;;5070921;28;20060;-63
2022/07/27 11:12:18;;;;;;;2.95;1.15;;;21.70;89.40;;;;;;5071000;28;20044;-64
2022/07/27 11:14:54;;;;;;;3.25;1.00;;;21.60;90.30;;;;;;5072203;28;20393;-65
2022/07/27 11:17:25;;;;;;;5.32;1.13;;;21.50;90.70;;;;;;5054296;28;20044;-64
2022/07/27 11:20:01;;;;;;;4.72;1.02;;;21.60;91.00;;;;;;5072059;28;20053;-64
2022/07/27 11:22:32;;;;;;;2.75;1.10;;;21.70;90.50;;;;;;5071975;28;20051;-63
2022/07/27 11:24:58;;;;;;;5.38;1.17;;;21.60;90.30;;;;;;5071516;28;20492;-64
2022/07/27 11:27:25;;;;;;;3.78;1.20;;;21.70;90.60;;;;;;5071950;28;20506;-63
2022/07/27 11:29:51;;;;;;;4.05;0.80;;;21.70;90.70;;;;;;5071280;28;20037;-64
2022/07/27 11:32:18;;;;;;;2.33;1.00;;;21.50;89.70;;;;;;5070578;28;20056;-63
2022/07/27 11:34:44;;;;;;;4.10;1.23;;;21.50;89.90;;;;;;5071718;28;20055;-64
2022/07/27 11:37:19;;;;;;;5.57;1.40;;;21.60;90.30;;;;;;5070285;28;20044;-63
2022/07/27 11:39:46;;;;;;;2.97;1.10;;;21.60;89.80;;;;;;5071947;28;20048;-64
2022/07/27 11:42:14;;;;;;;4.35;1.17;;;21.50;90.50;;;;;;5070444;28;20092;-65
2022/07/27 11:44:46;;;;;;;5.25;1.38;;;21.70;90.70;;;;;;5054170;28;20405;-64
2022/07/27 11:47:16;;;;;;;3.10;1.00;;;21.80;90.80;;;;;;5071902;28;20044;-63
2022/07/27 11:49:42;;;;;;;4.30;1.20;;;21.80;91.10;;;;;;5070706;28;20056;-63
2022/07/27 11:52:09;;;;;;;6.07;1.02;;;21.90;90.70;;;;;;5053197;28;20044;-63
2022/07/27 11:54:40;;;;;;;4.60;1.38;;;21.80;90.60;;;;;;5054136;28;20186;-65
2022/07/27 11:57:09;;;;;;;5.90;1.40;;;21.80;91.20;;;;;;5053183;28;20320;-65
2022/07/27 11:59:38;;;;;;;2.95;1.10;;;21.90;92.00;;;;;;5070387;28;20045;-64
2022/07/27 12:02:05;;;;;;;4.70;1.20;;;21.70;91.20;;;;;;5071521;28;20291;-63
2022/07/27 12:04:36;;;;;;;9.20;1.60;;;21.60;91.60;;;;;;5071925;28;20055;-64
2022/07/27 12:07:09;;;;;;;5.22;1.40;;;21.40;91.70;;;;;;5070024;28;20045;-62
2022/07/27 12:09:43;;;;;;;4.15;1.42;;;21.30;91.30;;;;;;5070920;28;20074;-62
2022/07/27 12:12:14;;;;;;;5.03;1.35;;;21.30;91.40;;;;;;5070487;28;20064;-64
2022/07/27 12:14:46;;;;;;;3.83;1.27;;;21.30;91.20;;;;;;5070338;28;20114;-64
2022/07/27 12:17:43;;;;;;;5.05;1.58;;;21.30;91.70;;;;;;5071485;28;20371;-64
2022/07/27 12:20:23;;;;;;;5.60;1.38;;;21.50;91.80;;;;;;5070754;28;20040;-63
2022/07/27 12:22:51;;;;;;;4.65;1.30;;;21.70;91.20;;;;;;5070383;28;20051;-63
2022/07/27 12:25:17;;;;;;;3.25;1.30;;;21.60;90.60;;;;;;5071339;28;20097;-62
2022/07/27 12:27:58;;;;;;;5.32;1.35;;;21.60;90.80;;;;;;5071563;28;20057;-62
2022/07/27 12:30:44;;;;;;;5.93;1.58;;;21.50;90.90;;;;;;5070261;28;20040;-64
2022/07/27 12:33:29;;;;;;;4.78;1.48;;;21.50;91.70;;;;;;5069736;28;20088;-62
2022/07/27 12:35:56;;;;;;;4.20;1.20;;;21.40;91.10;;;;;;5069686;28;20045;-62
2022/07/27 12:38:38;;;;;;;3.97;1.13;;;21.40;91.30;;;;;;5069920;28;20060;-62
2022/07/27 12:41:04;;;;;;;4.05;1.58;;;21.50;91.20;;;;;;5070235;28;20511;-62
2022/07/27 12:43:30;;;;;;;3.80;1.13;;;21.60;91.20;;;;;;5070848;28;20044;-62
2022/07/27 12:45:56;;;;;;;4.85;1.50;;;21.60;91.30;;;;;;5070286;28;20044;-61
2022/07/27 12:48:36;;;;;;;3.63;1.40;;;21.50;90.50;;;;;;5071039;28;20098;-61
2022/07/27 12:51:06;;;;;;;3.80;1.08;;;21.40;90.50;;;;;;5071507;28;20043;-62
2022/07/27 12:53:34;;;;;;;4.18;1.27;;;21.30;90.10;;;;;;5070022;28;20068;-62